Time;durP1;ratioP1;P1;durP2;ratioP2;P2;SDS_P1;SDS_P2;PMS_P1;PMS_P2;Temp;Humidity;BMP_temperature;BMP_pressure;BME280_temperature;BME280_humidity;BME280_pressure;Samples;Min_cycle;Max_cycle;Signal;HPM_P1;HPM_P2
2022/11/19 00:02:24;;;;;;;29.80;20.65;;;13.10;94.00;;;;;;5046085;28;20033;-75
2022/11/19 00:04:50;;;;;;;32.65;22.77;;;13.20;93.80;;;;;;5050660;28;20033;-76
2022/11/19 00:07:16;;;;;;;32.35;22.83;;;13.20;93.60;;;;;;5035956;28;20470;-76
2022/11/19 00:09:42;;;;;;;26.65;19.63;;;13.20;93.30;;;;;;5044753;28;20489;-76
2022/11/19 00:14:54;;;;;;;27.50;19.55;;;13.20;93.30;;;;;;5035496;28;20131;-75
2022/11/19 00:17:19;;;;;;;24.83;18.48;;;13.20;93.20;;;;;;5048003;28;20026;-76
2022/11/19 00:19:45;;;;;;;23.58;16.45;;;13.20;93.00;;;;;;5038353;28;20025;-76
2022/11/19 00:22:11;;;;;;;23.20;16.85;;;13.20;93.00;;;;;;5043734;28;20037;-76
2022/11/19 00:24:38;;;;;;;23.40;17.20;;;13.10;92.50;;;;;;5037178;28;20083;-76
2022/11/19 00:27:04;;;;;;;21.70;15.27;;;13.00;92.60;;;;;;5045658;28;20032;-74
2022/11/19 00:29:30;;;;;;;20.40;13.68;;;13.00;92.70;;;;;;5039501;28;20670;-74
2022/11/19 00:31:56;;;;;;;21.35;15.00;;;13.00;92.60;;;;;;5034544;28;20112;-74
2022/11/19 00:34:21;;;;;;;20.92;14.60;;;13.00;92.70;;;;;;5042428;28;20029;-74
2022/11/19 00:36:47;;;;;;;24.20;15.07;;;13.10;92.70;;;;;;5033251;28;20037;-74
2022/11/19 00:39:13;;;;;;;21.85;15.57;;;13.10;92.20;;;;;;5047639;28;20036;-74
2022/11/19 00:41:38;;;;;;;16.35;11.63;;;13.10;92.00;;;;;;5045707;28;20104;-74
2022/11/19 00:44:04;;;;;;;15.77;11.88;;;13.00;92.10;;;;;;5032495;28;20033;-75
2022/11/19 00:46:30;;;;;;;15.48;11.77;;;13.00;92.30;;;;;;5044860;28;20048;-75
2022/11/19 00:48:58;;;;;;;16.83;11.80;;;12.90;92.10;;;;;;5023084;28;20504;-75
2022/11/19 00:51:26;;;;;;;16.40;11.20;;;12.80;91.90;;;;;;5038066;28;20021;-75
2022/11/19 00:53:52;;;;;;;15.77;11.15;;;12.80;92.10;;;;;;5051529;28;20100;-75
2022/11/19 00:56:20;;;;;;;13.45;10.15;;;12.80;92.10;;;;;;5035245;28;20402;-74
2022/11/19 00:58:47;;;;;;;13.27;10.10;;;12.80;92.10;;;;;;5040704;28;20068;-74
2022/11/19 01:01:14;;;;;;;13.68;9.52;;;12.80;92.10;;;;;;5037308;28;20033;-74
2022/11/19 01:03:41;;;;;;;13.70;9.57;;;12.90;92.10;;;;;;5032309;28;20067;-74
2022/11/19 01:06:08;;;;;;;12.48;8.25;;;12.80;91.90;;;;;;5034847;28;20421;-73
2022/11/19 01:08:34;;;;;;;13.93;8.82;;;12.80;92.00;;;;;;5034222;28;20108;-74
2022/11/19 01:11:12;;;;;;;12.25;8.20;;;12.80;92.00;;;;;;5035436;28;20052;-74
2022/11/19 01:13:38;;;;;;;13.05;8.48;;;12.80;91.90;;;;;;5044741;28;20046;-74
2022/11/19 01:16:10;;;;;;;11.73;8.48;;;12.80;91.90;;;;;;5035845;28;20029;-75
2022/11/19 01:18:38;;;;;;;13.15;8.77;;;12.90;91.80;;;;;;5035614;28;20115;-75
2022/11/19 01:21:04;;;;;;;14.05;8.77;;;12.80;91.30;;;;;;5033668;28;20026;-75
2022/11/19 01:23:30;;;;;;;10.00;7.72;;;12.80;91.60;;;;;;5045894;28;20048;-75
2022/11/19 01:25:56;;;;;;;8.15;6.65;;;12.70;91.60;;;;;;5044026;28;20040;-76
2022/11/19 01:28:22;;;;;;;11.10;7.13;;;12.70;91.70;;;;;;5043794;28;20029;-76
2022/11/19 01:30:47;;;;;;;9.63;7.53;;;12.80;91.60;;;;;;5036122;28;20083;-75
2022/11/19 01:33:13;;;;;;;8.95;6.53;;;12.80;91.50;;;;;;5036570;28;20037;-75
2022/11/19 01:35:39;;;;;;;10.45;7.47;;;12.70;91.40;;;;;;5041598;28;20060;-75
2022/11/19 01:38:06;;;;;;;9.32;6.22;;;12.70;91.20;;;;;;5048916;28;20078;-75
2022/11/19 01:40:32;;;;;;;9.13;6.57;;;12.70;91.50;;;;;;5040239;28;20420;-75
2022/11/19 01:42:58;;;;;;;7.68;5.55;;;12.70;91.30;;;;;;5038782;28;20645;-76
2022/11/19 01:45:39;;;;;;;9.05;6.32;;;12.70;91.40;;;;;;5054853;28;20087;-76
2022/11/19 01:48:22;;;;;;;7.72;5.30;;;12.70;91.50;;;;;;5042166;28;20531;-76
2022/11/19 01:50:51;;;;;;;9.80;6.07;;;12.80;91.40;;;;;;5039288;28;20033;-76
2022/11/19 01:53:20;;;;;;;8.38;6.20;;;12.80;91.20;;;;;;5036522;28;20068;-74
2022/11/19 01:55:46;;;;;;;7.18;5.47;;;12.70;91.20;;;;;;5040193;28;20038;-74
2022/11/19 01:58:16;;;;;;;6.82;5.25;;;12.70;91.20;;;;;;5043428;28;20025;-73
2022/11/19 02:00:42;;;;;;;15.93;5.95;;;12.70;91.30;;;;;;5040267;28;20369;-74
2022/11/19 02:03:10;;;;;;;6.82;5.15;;;12.80;91.20;;;;;;5047990;28;20028;-74
2022/11/19 02:05:36;;;;;;;8.00;5.78;;;12.80;91.20;;;;;;5050044;28;20064;-74
2022/11/19 02:08:06;;;;;;;8.82;5.15;;;12.80;91.00;;;;;;5037663;28;20404;-74
2022/11/19 02:10:52;;;;;;;7.88;4.93;;;12.80;91.10;;;;;;5041553;28;20432;-74
2022/11/19 02:13:27;;;;;;;8.00;6.00;;;12.70;91.10;;;;;;5049401;28;20095;-75
2022/11/19 02:16:10;;;;;;;7.95;5.18;;;12.70;91.00;;;;;;5048322;28;20414;-75
2022/11/19 02:18:51;;;;;;;8.82;5.32;;;12.70;91.00;;;;;;5031111;28;20323;-75
2022/11/19 02:21:28;;;;;;;7.20;4.03;;;12.60;90.90;;;;;;5048358;28;20469;-75
2022/11/19 02:24:00;;;;;;;5.53;4.45;;;12.60;91.10;;;;;;5035911;28;20026;-75
2022/11/19 02:26:53;;;;;;;7.03;4.68;;;12.60;91.10;;;;;;5034964;28;20493;-75
2022/11/19 02:29:22;;;;;;;6.10;4.50;;;12.60;91.10;;;;;;5044343;28;20639;-75
2022/11/19 02:32:03;;;;;;;5.93;4.18;;;12.60;91.10;;;;;;5044392;28;20034;-75
2022/11/19 02:34:45;;;;;;;7.10;4.53;;;12.70;91.00;;;;;;5040654;28;20094;-78
2022/11/19 02:37:15;;;;;;;7.75;4.25;;;12.80;91.00;;;;;;5035456;28;20116;-75
2022/11/19 02:40:07;;;;;;;5.07;3.92;;;12.80;90.90;;;;;;5050957;28;20598;-75
2022/11/19 02:42:35;;;;;;;5.22;3.60;;;12.80;90.80;;;;;;5033197;28;20432;-75
2022/11/19 02:45:18;;;;;;;5.25;3.35;;;12.90;90.80;;;;;;5047554;28;20057;-75
2022/11/19 02:47:52;;;;;;;6.65;4.05;;;12.90;90.70;;;;;;5051246;28;20036;-75
2022/11/19 02:50:31;;;;;;;6.15;3.30;;;12.90;90.50;;;;;;5065069;28;20029;-75
2022/11/19 02:52:57;;;;;;;4.30;3.20;;;12.90;90.50;;;;;;5049034;28;20042;-75
2022/11/19 02:55:23;;;;;;;4.18;3.33;;;12.90;90.40;;;;;;5054583;28;20469;-74
2022/11/19 03:06:39;;;;;;;6.00;3.40;;;12.90;90.40;;;;;;5049514;28;20036;-75
2022/11/19 03:09:04;;;;;;;5.43;3.33;;;12.90;90.40;;;;;;5032591;28;20495;-75
2022/11/19 03:11:31;;;;;;;3.88;3.03;;;12.90;90.30;;;;;;5043404;28;20040;-75
2022/11/19 03:17:20;;;;;;;4.75;3.45;;;13.00;90.20;;;;;;5048870;28;20611;-75
2022/11/19 03:19:49;;;;;;;4.25;2.90;;;12.90;90.10;;;;;;5048899;28;20021;-75
2022/11/19 03:22:27;;;;;;;3.80;2.97;;;12.90;90.20;;;;;;5049481;28;20025;-75
2022/11/19 03:25:23;;;;;;;3.72;3.15;;;12.80;90.20;;;;;;5051632;28;20469;-75
2022/11/19 03:27:53;;;;;;;3.88;2.90;;;12.80;90.10;;;;;;5060733;28;20119;-75
2022/11/19 03:30:19;;;;;;;3.53;2.93;;;12.80;90.10;;;;;;5069398;28;20043;-76
2022/11/19 03:33:03;;;;;;;5.15;3.55;;;12.90;90.10;;;;;;5054803;28;20032;-75
2022/11/19 03:35:57;;;;;;;5.28;2.92;;;12.80;90.00;;;;;;5053655;28;20033;-76
2022/11/19 03:38:32;;;;;;;5.05;3.63;;;12.70;90.10;;;;;;5045519;28;20044;-77
2022/11/19 03:41:00;;;;;;;5.43;3.55;;;12.70;90.00;;;;;;5021117;28;20057;-75
2022/11/19 03:43:30;;;;;;;4.72;3.13;;;12.70;90.00;;;;;;5036789;28;20037;-75
2022/11/19 03:45:58;;;;;;;3.35;2.95;;;12.70;90.10;;;;;;5046546;28;20509;-75
2022/11/19 03:48:26;;;;;;;4.60;3.08;;;12.70;90.10;;;;;;5046983;28;20112;-76
2022/11/19 03:50:56;;;;;;;4.40;3.03;;;12.70;90.10;;;;;;5046982;28;20146;-76
2022/11/19 03:53:23;;;;;;;3.70;3.10;;;12.80;90.20;;;;;;5061942;28;20048;-77
2022/11/19 03:56:10;;;;;;;5.80;3.58;;;12.80;89.80;;;;;;5039619;28;20040;-76
2022/11/19 03:58:43;;;;;;;4.68;3.30;;;12.80;89.70;;;;;;5056712;28;20070;-77
2022/11/19 04:01:09;;;;;;;4.82;3.17;;;12.80;89.30;;;;;;5043876;28;20446;-77
2022/11/19 04:03:35;;;;;;;5.22;3.75;;;12.80;89.60;;;;;;5034469;28;20028;-76
2022/11/19 04:06:02;;;;;;;3.33;2.70;;;12.80;88.90;;;;;;5051273;28;20466;-76
2022/11/19 04:08:27;;;;;;;3.90;2.92;;;12.80;89.40;;;;;;5043841;28;20366;-77
2022/11/19 04:10:53;;;;;;;5.65;3.70;;;12.80;89.50;;;;;;5024120;28;20033;-76
2022/11/19 04:13:19;;;;;;;3.05;2.53;;;12.70;89.50;;;;;;5040081;28;20381;-77
2022/11/19 04:15:44;;;;;;;3.33;2.15;;;12.70;89.60;;;;;;5051575;28;20114;-78
2022/11/19 04:18:10;;;;;;;4.60;2.60;;;12.70;89.60;;;;;;5046243;28;20459;-77
2022/11/19 04:20:36;;;;;;;3.65;2.65;;;12.80;89.70;;;;;;5057673;28;20144;-76
2022/11/19 04:23:01;;;;;;;4.65;3.30;;;12.80;89.60;;;;;;5055266;28;20024;-76
2022/11/19 04:25:27;;;;;;;4.93;2.95;;;12.80;89.60;;;;;;5049820;28;20030;-76
2022/11/19 04:27:53;;;;;;;3.88;2.60;;;12.90;89.70;;;;;;5043901;28;20047;-75
2022/11/19 04:30:18;;;;;;;3.55;2.67;;;12.90;89.50;;;;;;5057891;28;20033;-75
2022/11/19 04:32:44;;;;;;;3.97;2.92;;;12.90;89.50;;;;;;5053665;28;20021;-75
2022/11/19 04:35:10;;;;;;;3.28;2.50;;;12.90;89.40;;;;;;5036288;28;20047;-76
2022/11/19 04:37:36;;;;;;;4.28;2.70;;;12.90;89.80;;;;;;5050599;28;20528;-76
2022/11/19 04:40:02;;;;;;;3.70;2.70;;;12.90;89.40;;;;;;5038566;28;20040;-76
2022/11/19 04:42:28;;;;;;;4.35;2.60;;;12.90;89.40;;;;;;5055471;28;20032;-76
2022/11/19 04:44:53;;;;;;;3.90;2.53;;;12.80;89.00;;;;;;5051131;28;20110;-74
2022/11/19 04:47:19;;;;;;;5.53;2.83;;;12.80;89.00;;;;;;5048135;28;20032;-75
2022/11/19 04:49:45;;;;;;;3.13;2.30;;;12.80;89.20;;;;;;5049896;28;20037;-75
2022/11/19 04:52:10;;;;;;;3.88;3.08;;;12.70;89.20;;;;;;5049487;28;20373;-74
2022/11/19 04:54:36;;;;;;;2.95;2.38;;;12.70;89.20;;;;;;5044416;28;20095;-74
2022/11/19 04:57:01;;;;;;;3.15;2.47;;;12.70;89.10;;;;;;5055102;28;20420;-75
2022/11/19 04:59:27;;;;;;;4.30;2.55;;;12.70;89.00;;;;;;5037456;28;20044;-75
2022/11/19 05:01:53;;;;;;;3.65;2.45;;;12.70;89.10;;;;;;5046905;28;20377;-75
2022/11/19 05:04:18;;;;;;;3.33;2.60;;;12.70;89.20;;;;;;5046099;28;20034;-76
2022/11/19 05:06:44;;;;;;;3.42;2.40;;;12.70;89.10;;;;;;5040677;28;20461;-76
2022/11/19 05:09:09;;;;;;;4.05;2.45;;;12.70;89.20;;;;;;5052786;28;20037;-76
2022/11/19 05:11:35;;;;;;;3.83;2.75;;;12.70;89.00;;;;;;5024494;28;20087;-76
2022/11/19 05:14:01;;;;;;;3.50;2.78;;;12.70;89.00;;;;;;5043267;28;20032;-75
2022/11/19 05:16:26;;;;;;;4.70;2.33;;;12.70;88.90;;;;;;5054926;28;20488;-75
2022/11/19 05:18:52;;;;;;;3.78;2.58;;;12.60;88.80;;;;;;5024003;28;20033;-75
2022/11/19 05:21:18;;;;;;;4.15;2.63;;;12.70;89.10;;;;;;5050391;28;20032;-75
2022/11/19 05:23:43;;;;;;;3.55;2.60;;;12.70;89.10;;;;;;5045985;28;20036;-76
2022/11/19 05:26:09;;;;;;;3.95;2.38;;;12.60;88.90;;;;;;5060180;28;20032;-76
2022/11/19 05:28:34;;;;;;;3.75;2.55;;;12.60;89.10;;;;;;5044287;28;20350;-76
2022/11/19 05:31:00;;;;;;;3.35;2.53;;;12.50;88.60;;;;;;5043762;28;20429;-73
2022/11/19 05:33:26;;;;;;;3.65;2.65;;;12.50;89.10;;;;;;5048924;28;20033;-73
2022/11/19 05:35:52;;;;;;;3.20;2.25;;;12.50;89.20;;;;;;5056840;28;20029;-73
2022/11/19 05:38:17;;;;;;;4.47;2.33;;;12.50;89.20;;;;;;5053716;28;20029;-73
2022/11/19 05:40:44;;;;;;;2.92;2.03;;;12.50;89.10;;;;;;5049931;28;20408;-73
2022/11/19 05:43:11;;;;;;;2.20;2.00;;;12.60;88.90;;;;;;5052215;28;20021;-73
2022/11/19 05:45:36;;;;;;;3.03;2.47;;;12.60;89.10;;;;;;5042480;28;20057;-73
2022/11/19 05:48:02;;;;;;;2.97;2.30;;;12.60;88.90;;;;;;5048537;28;20075;-73
2022/11/19 05:50:28;;;;;;;3.17;2.45;;;12.60;88.60;;;;;;5045616;28;20037;-74
2022/11/19 05:52:54;;;;;;;3.83;2.10;;;12.60;88.50;;;;;;5050055;28;20016;-73
2022/11/19 05:55:20;;;;;;;5.53;2.20;;;12.50;87.90;;;;;;5043120;28;20032;-72
2022/11/19 05:57:46;;;;;;;4.40;3.00;;;12.40;87.80;;;;;;5024674;28;20108;-73
2022/11/19 06:00:12;;;;;;;3.40;2.50;;;12.40;88.20;;;;;;5041898;28;20349;-73
2022/11/19 06:02:38;;;;;;;3.08;2.17;;;12.30;88.30;;;;;;5043653;28;20517;-72
2022/11/19 06:05:04;;;;;;;4.45;2.53;;;12.30;88.40;;;;;;5037556;28;20037;-73
2022/11/19 06:07:29;;;;;;;4.28;2.47;;;12.30;88.50;;;;;;5046644;28;20442;-72
2022/11/19 06:09:55;;;;;;;3.45;2.38;;;12.40;88.50;;;;;;5053724;28;20067;-72
2022/11/19 06:12:21;;;;;;;3.38;2.58;;;12.30;88.40;;;;;;5045091;28;20061;-73
2022/11/19 06:14:47;;;;;;;5.45;2.75;;;12.30;88.60;;;;;;5048055;28;20203;-72
2022/11/19 06:17:12;;;;;;;3.83;2.80;;;12.30;88.70;;;;;;5046751;28;21772;-73
2022/11/19 06:19:38;;;;;;;4.95;2.83;;;12.40;88.80;;;;;;5043904;28;20440;-73
2022/11/19 06:22:04;;;;;;;3.13;2.58;;;12.40;88.60;;;;;;5046947;28;20109;-73
2022/11/19 06:24:30;;;;;;;3.80;2.28;;;12.40;88.30;;;;;;5040429;28;20029;-73
2022/11/19 06:26:55;;;;;;;3.10;2.30;;;12.30;88.10;;;;;;5052879;28;20570;-73
2022/11/19 06:29:21;;;;;;;3.10;2.38;;;12.30;88.30;;;;;;5043032;28;20473;-73
2022/11/19 06:31:47;;;;;;;3.53;2.33;;;12.30;88.20;;;;;;5038866;28;20029;-72
2022/11/19 06:34:13;;;;;;;3.78;2.70;;;12.30;88.40;;;;;;5046284;28;20032;-73
2022/11/19 06:36:39;;;;;;;2.75;1.92;;;12.20;87.60;;;;;;5046177;28;20040;-72
2022/11/19 06:39:05;;;;;;;9.02;2.50;;;12.20;88.40;;;;;;5037765;28;20060;-73
2022/11/19 06:41:30;;;;;;;4.93;2.78;;;12.20;88.30;;;;;;5040978;28;20087;-74
2022/11/19 06:43:56;;;;;;;6.80;2.75;;;12.20;88.30;;;;;;5040728;28;20033;-74
2022/11/19 06:46:22;;;;;;;3.50;2.25;;;12.20;88.50;;;;;;5040722;28;20059;-73
2022/11/19 06:48:47;;;;;;;2.38;1.73;;;12.10;87.90;;;;;;5039318;28;20037;-73
2022/11/19 06:51:13;;;;;;;5.55;2.38;;;12.20;88.30;;;;;;5041239;28;20087;-73
2022/11/19 06:53:39;;;;;;;3.28;1.80;;;12.20;87.80;;;;;;5034935;28;20460;-73
2022/11/19 06:56:05;;;;;;;2.58;1.90;;;12.20;87.80;;;;;;5040408;28;20026;-71
2022/11/19 06:58:33;;;;;;;4.50;3.30;;;12.20;88.00;;;;;;5042385;28;20025;-71
2022/11/19 07:00:59;;;;;;;4.82;2.60;;;12.20;89.70;;;;;;5047810;28;20021;-79
2022/11/19 07:03:25;;;;;;;3.60;2.10;;;12.30;88.30;;;;;;5033744;28;20017;-79
2022/11/19 07:05:57;;;;;;;2.78;2.08;;;12.40;87.90;;;;;;5039614;28;20579;-79
2022/11/19 07:08:23;;;;;;;3.03;2.22;;;12.30;87.70;;;;;;5045662;28;20029;-72
2022/11/19 07:10:49;;;;;;;4.93;2.60;;;12.20;87.40;;;;;;5048558;28;20055;-72
2022/11/19 07:13:15;;;;;;;2.42;2.08;;;12.20;87.00;;;;;;5049857;28;20031;-81
2022/11/19 07:15:41;;;;;;;2.80;2.17;;;12.20;87.80;;;;;;5037739;28;20033;-82
2022/11/19 07:18:07;;;;;;;5.10;2.22;;;12.10;87.30;;;;;;5040703;28;20031;-74
2022/11/19 07:20:33;;;;;;;3.60;2.15;;;12.20;87.50;;;;;;5037693;28;20040;-73
2022/11/19 07:22:59;;;;;;;2.35;1.90;;;12.20;87.40;;;;;;5053761;28;20032;-73
2022/11/19 07:25:25;;;;;;;4.70;2.30;;;12.20;87.10;;;;;;5047825;28;20396;-79
2022/11/19 07:27:51;;;;;;;2.85;2.30;;;12.20;87.00;;;;;;5049222;28;20065;-81
2022/11/19 07:30:17;;;;;;;3.13;1.92;;;12.10;87.20;;;;;;5039384;28;20053;-80
2022/11/19 07:32:43;;;;;;;4.28;2.60;;;12.10;87.60;;;;;;5052055;28;20147;-79
2022/11/19 07:35:09;;;;;;;4.13;2.30;;;12.10;87.40;;;;;;5045523;28;20018;-81
2022/11/19 07:37:35;;;;;;;3.85;2.15;;;12.20;87.60;;;;;;5043048;28;20172;-81
2022/11/19 07:40:02;;;;;;;5.55;2.47;;;12.20;87.20;;;;;;5038831;28;20413;-78
2022/11/19 07:45:12;;;;;;;3.85;2.20;;;12.20;86.80;;;;;;5046043;28;20456;-79
2022/11/19 07:47:38;;;;;;;3.53;2.33;;;12.20;87.20;;;;;;5041911;28;20033;-79
2022/11/19 07:50:04;;;;;;;3.83;2.13;;;12.20;87.20;;;;;;5043807;28;20037;-72
2022/11/19 07:52:30;;;;;;;4.72;2.28;;;12.30;87.00;;;;;;5039720;28;20863;-73
2022/11/19 07:54:56;;;;;;;3.42;2.42;;;12.30;87.10;;;;;;5050414;28;20477;-75
2022/11/19 07:57:22;;;;;;;6.13;2.17;;;12.40;87.20;;;;;;5043031;28;20029;-78
2022/11/19 07:59:47;;;;;;;3.53;2.20;;;12.40;87.10;;;;;;5046271;28;20029;-81
2022/11/19 08:02:14;;;;;;;5.07;2.83;;;12.50;87.00;;;;;;5046468;28;20021;-74
2022/11/19 08:04:40;;;;;;;5.03;2.67;;;12.70;87.00;;;;;;5048932;28;20025;-80
2022/11/19 08:07:06;;;;;;;3.92;2.42;;;12.80;86.90;;;;;;5045559;28;20389;-79
2022/11/19 08:09:32;;;;;;;6.30;2.10;;;12.90;86.70;;;;;;5048312;28;20041;-78
2022/11/19 08:11:57;;;;;;;3.83;1.88;;;12.90;86.30;;;;;;5048522;28;20029;-79
2022/11/19 08:14:23;;;;;;;4.30;2.03;;;12.90;85.80;;;;;;5033103;28;20083;-78
2022/11/19 08:19:33;;;;;;;3.50;2.13;;;13.00;86.00;;;;;;5072716;28;20044;-77
2022/11/19 08:21:59;;;;;;;4.47;2.60;;;13.10;86.20;;;;;;5055716;28;20029;-77
2022/11/19 08:24:25;;;;;;;4.13;2.15;;;13.20;86.20;;;;;;5015437;28;20030;-74
2022/11/19 08:26:50;;;;;;;3.92;2.35;;;13.20;85.80;;;;;;5015037;28;20500;-75
2022/11/19 08:29:19;;;;;;;4.57;2.17;;;13.30;85.80;;;;;;5039104;28;20392;-75
2022/11/19 08:31:46;;;;;;;3.22;1.95;;;13.40;85.40;;;;;;5047534;28;20049;-75
2022/11/19 08:34:12;;;;;;;3.58;2.20;;;13.50;85.60;;;;;;5033666;28;20021;-74
2022/11/19 08:36:38;;;;;;;4.47;2.13;;;13.60;85.70;;;;;;5042663;28;20032;-75
2022/11/19 08:39:05;;;;;;;2.58;2.20;;;13.70;85.50;;;;;;5053145;28;20111;-75
2022/11/19 08:44:16;;;;;;;2.88;2.17;;;14.00;85.00;;;;;;5060881;28;20060;-75
2022/11/19 08:46:42;;;;;;;5.13;2.83;;;14.10;84.40;;;;;;5052616;28;20433;-75
2022/11/19 08:49:08;;;;;;;3.55;2.42;;;14.10;82.70;;;;;;5054876;28;20029;-75
2022/11/19 08:51:34;;;;;;;3.50;2.15;;;14.10;83.60;;;;;;5056655;28;20024;-75
2022/11/19 08:53:59;;;;;;;3.47;2.47;;;14.20;84.30;;;;;;5056976;28;20017;-79
2022/11/19 08:56:25;;;;;;;3.92;2.40;;;14.30;82.90;;;;;;5053834;28;20075;-79
2022/11/19 08:58:52;;;;;;;3.75;2.60;;;14.20;82.60;;;;;;5054843;28;20539;-79
2022/11/19 09:01:18;;;;;;;2.78;2.42;;;14.30;83.20;;;;;;5055241;28;20025;-79
2022/11/19 09:03:44;;;;;;;4.35;2.65;;;14.30;82.10;;;;;;5018639;28;20580;-79
2022/11/19 09:06:10;;;;;;;4.88;2.40;;;14.30;82.80;;;;;;5041233;28;20044;-79
2022/11/19 09:08:36;;;;;;;3.35;2.80;;;14.30;82.60;;;;;;5044485;28;20029;-84
2022/11/19 09:11:10;;;;;;;4.25;3.20;;;14.40;82.20;;;;;;5042374;28;20025;-84
2022/11/19 09:13:36;;;;;;;5.47;2.67;;;14.40;82.00;;;;;;5036028;28;20099;-84
2022/11/19 09:16:03;;;;;;;5.43;3.05;;;14.40;82.50;;;;;;5050670;28;20032;-84
2022/11/19 09:18:30;;;;;;;3.42;2.88;;;14.30;82.40;;;;;;5055494;28;20024;-84
2022/11/19 09:20:56;;;;;;;5.25;2.75;;;14.40;82.60;;;;;;5049986;28;20527;-84
2022/11/19 09:23:23;;;;;;;4.20;2.78;;;14.40;82.80;;;;;;5050469;28;20033;-83
2022/11/19 09:26:11;;;;;;;4.65;2.95;;;14.40;82.60;;;;;;5048838;28;20064;-85
2022/11/19 09:28:36;;;;;;;5.72;2.70;;;14.40;82.80;;;;;;5060242;28;20032;-83
2022/11/19 09:31:04;;;;;;;4.13;3.40;;;14.40;83.10;;;;;;5051233;28;20051;-78
2022/11/19 09:33:31;;;;;;;4.85;3.67;;;14.40;83.10;;;;;;5055940;28;20027;-78
2022/11/19 09:35:57;;;;;;;4.68;3.40;;;14.40;82.30;;;;;;5042251;28;20083;-79
2022/11/19 09:38:23;;;;;;;4.88;3.15;;;14.50;83.00;;;;;;5055189;28;20018;-79
2022/11/19 09:40:51;;;;;;;4.20;3.33;;;14.50;83.20;;;;;;5054288;28;20096;-79
2022/11/19 09:43:39;;;;;;;6.30;3.78;;;14.50;83.00;;;;;;5055012;28;20033;-78
2022/11/19 09:46:35;;;;;;;5.43;3.72;;;14.50;82.70;;;;;;5052549;28;20051;-78
2022/11/19 09:49:07;;;;;;;5.15;3.33;;;14.60;82.30;;;;;;5050782;28;20037;-80
2022/11/19 09:51:34;;;;;;;4.93;3.72;;;14.60;82.50;;;;;;5047881;28;20029;-78
2022/11/19 09:54:13;;;;;;;6.25;4.30;;;14.60;82.60;;;;;;5053218;28;20100;-78
2022/11/19 09:56:42;;;;;;;5.20;3.63;;;14.70;82.00;;;;;;5046046;28;20028;-78
2022/11/19 09:59:39;;;;;;;5.57;3.03;;;14.70;81.70;;;;;;5045196;28;20037;-78
2022/11/19 10:02:22;;;;;;;4.40;3.28;;;14.80;82.30;;;;;;5036455;28;20033;-78
2022/11/19 10:04:50;;;;;;;4.60;3.45;;;14.90;82.40;;;;;;5051890;28;20025;-78
2022/11/19 10:07:57;;;;;;;4.13;3.30;;;15.00;82.40;;;;;;5055358;28;20091;-78
2022/11/19 10:10:49;;;;;;;4.72;3.72;;;15.10;82.30;;;;;;5053379;28;20052;-78
2022/11/19 10:13:45;;;;;;;5.82;3.70;;;15.20;82.00;;;;;;5048688;28;20056;-77
2022/11/19 10:16:30;;;;;;;5.20;3.58;;;15.30;81.60;;;;;;5048423;28;20079;-78
2022/11/19 10:19:08;;;;;;;6.15;3.60;;;15.30;81.30;;;;;;5045589;28;20029;-77
2022/11/19 10:21:56;;;;;;;4.00;3.15;;;15.40;81.20;;;;;;5053395;28;20082;-74
2022/11/19 10:24:25;;;;;;;7.68;3.78;;;15.50;81.10;;;;;;5045652;28;20056;-74
2022/11/19 10:27:00;;;;;;;5.70;3.25;;;15.60;80.70;;;;;;5046613;28;20021;-78
2022/11/19 10:29:28;;;;;;;7.63;3.47;;;15.70;80.80;;;;;;5045598;28;20120;-78
2022/11/19 10:32:27;;;;;;;5.55;3.17;;;15.70;80.10;;;;;;5040760;28;20033;-77
2022/11/19 10:34:59;;;;;;;3.95;3.13;;;15.70;80.50;;;;;;5041191;28;20037;-78
2022/11/19 10:37:32;;;;;;;3.45;2.85;;;15.80;80.60;;;;;;5051286;28;20380;-75
2022/11/19 10:40:06;;;;;;;4.95;3.00;;;15.80;80.40;;;;;;5043615;28;20458;-74
2022/11/19 10:42:41;;;;;;;5.75;3.55;;;15.90;80.30;;;;;;5044442;28;20082;-74
2022/11/19 10:45:25;;;;;;;5.75;3.33;;;15.90;80.10;;;;;;5052333;28;20068;-74
2022/11/19 10:48:11;;;;;;;4.15;3.10;;;16.00;79.50;;;;;;5052840;28;20064;-74
2022/11/19 10:50:36;;;;;;;4.68;3.10;;;16.00;79.20;;;;;;5049321;28;20033;-78
2022/11/19 10:53:15;;;;;;;3.63;3.00;;;16.00;79.40;;;;;;5047018;28;20670;-78
2022/11/19 10:55:49;;;;;;;4.93;3.42;;;16.00;78.90;;;;;;5048412;28;20036;-78
2022/11/19 10:58:22;;;;;;;3.95;3.00;;;15.90;78.60;;;;;;5053295;28;20075;-87
2022/11/19 11:00:49;;;;;;;4.00;2.80;;;15.80;79.10;;;;;;5041878;28;20052;-75
2022/11/19 11:03:22;;;;;;;3.85;2.63;;;15.80;79.10;;;;;;5048695;28;20029;-74
2022/11/19 11:05:57;;;;;;;2.65;2.42;;;15.80;78.90;;;;;;5052000;28;20047;-78
2022/11/19 11:08:23;;;;;;;3.50;2.80;;;15.80;78.60;;;;;;5052924;28;20029;-75
2022/11/19 11:10:50;;;;;;;2.83;2.33;;;15.80;79.00;;;;;;5048439;28;20040;-75
2022/11/19 11:16:26;;;;;;;3.00;2.13;;;15.70;78.40;;;;;;5049846;28;20048;-79
2022/11/19 11:18:55;;;;;;;4.20;2.65;;;15.70;78.90;;;;;;5050958;28;20095;-78
2022/11/19 11:21:29;;;;;;;2.70;2.22;;;15.80;79.20;;;;;;5043997;28;20047;-78
2022/11/19 11:23:55;;;;;;;3.50;2.70;;;15.90;79.40;;;;;;5051077;28;20104;-78
2022/11/19 11:26:24;;;;;;;3.90;2.83;;;16.10;79.20;;;;;;5047199;28;20108;-78
2022/11/19 11:28:54;;;;;;;6.18;2.85;;;16.20;79.00;;;;;;5034147;28;20082;-75
2022/11/19 11:31:35;;;;;;;8.65;3.00;;;16.30;77.90;;;;;;5053992;28;20036;-75
2022/11/19 11:34:01;;;;;;;3.63;2.22;;;16.30;77.70;;;;;;5041624;28;20072;-75
2022/11/19 11:36:30;;;;;;;3.53;2.55;;;16.30;78.20;;;;;;5043365;28;20026;-79
2022/11/19 11:39:00;;;;;;;3.78;2.40;;;16.40;78.40;;;;;;5039527;28;20032;-79
2022/11/19 11:41:40;;;;;;;4.27;2.60;;;16.40;78.10;;;;;;5063881;28;20029;-77
2022/11/19 11:44:14;;;;;;;;;;;16.40;78.00;;;;;;5039365;28;20484;-78
2022/11/19 11:46:54;;;;;;;3.00;2.13;;;16.40;77.90;;;;;;5035392;28;19921;-77
2022/11/19 11:49:28;;;;;;;5.20;1.90;;;16.60;78.20;;;;;;5043319;28;20044;-77
2022/11/19 11:52:02;;;;;;;4.22;2.00;;;16.70;78.20;;;;;;5036031;28;20750;-77
2022/11/19 11:54:27;;;;;;;3.67;1.80;;;16.90;77.50;;;;;;5045585;28;20025;-77
2022/11/19 11:57:06;;;;;;;2.85;2.03;;;17.10;77.00;;;;;;5048667;28;20495;-77
2022/11/19 11:59:32;;;;;;;2.42;1.90;;;17.40;76.30;;;;;;5039797;28;20553;-77
2022/11/19 12:02:05;;;;;;;3.13;1.90;;;17.50;76.00;;;;;;5042196;28;20120;-78
2022/11/19 12:04:33;;;;;;;2.33;1.88;;;17.60;75.80;;;;;;5037665;28;20052;-77
2022/11/19 12:07:06;;;;;;;2.30;1.83;;;17.70;75.70;;;;;;5045182;28;20038;-78
2022/11/19 12:10:15;;;;;;;2.60;2.05;;;17.70;75.50;;;;;;5044960;28;20035;-78
2022/11/19 12:12:49;;;;;;;2.90;1.98;;;17.70;75.10;;;;;;5047936;28;20041;-78
2022/11/19 12:15:21;;;;;;;3.35;1.90;;;17.70;75.10;;;;;;5034444;28;20087;-77
2022/11/19 12:18:04;;;;;;;3.10;1.98;;;17.70;74.80;;;;;;5033529;28;20036;-77
2022/11/19 12:20:50;;;;;;;3.05;2.00;;;17.60;74.30;;;;;;5034625;28;20033;-77
2022/11/19 12:23:31;;;;;;;3.05;2.00;;;17.70;74.10;;;;;;5048421;28;20025;-77
2022/11/19 12:26:34;;;;;;;3.38;2.20;;;17.70;75.00;;;;;;5041859;28;20472;-77
2022/11/19 12:29:20;;;;;;;2.58;1.67;;;17.80;74.80;;;;;;5036457;28;20496;-78
2022/11/19 12:32:06;;;;;;;2.60;1.83;;;17.80;74.60;;;;;;5041384;28;20028;-77
2022/11/19 12:34:46;;;;;;;2.33;1.63;;;17.80;74.00;;;;;;5037379;28;20036;-78
2022/11/19 12:37:54;;;;;;;2.25;1.70;;;17.70;74.20;;;;;;5038012;28;20049;-78
2022/11/19 12:40:29;;;;;;;2.15;1.83;;;17.70;74.40;;;;;;5038360;28;20035;-77
2022/11/19 12:43:13;;;;;;;3.13;1.40;;;17.60;73.00;;;;;;5039216;28;20021;-77
2022/11/19 12:45:57;;;;;;;1.65;1.52;;;17.40;74.20;;;;;;5044784;28;20055;-77
2022/11/19 12:48:32;;;;;;;1.98;1.40;;;17.30;74.50;;;;;;5045048;28;20040;-77
2022/11/19 12:50:58;;;;;;;1.77;1.45;;;17.30;74.80;;;;;;5047301;28;20397;-77
2022/11/19 12:53:39;;;;;;;2.40;1.60;;;17.20;75.00;;;;;;5041371;28;20029;-77
2022/11/19 12:57:00;;;;;;;2.38;1.60;;;17.20;75.10;;;;;;5037627;28;20048;-77
2022/11/19 12:59:47;;;;;;;2.78;1.52;;;17.10;75.60;;;;;;5008010;28;20073;-77
2022/11/19 13:02:26;;;;;;;3.80;2.13;;;17.00;76.00;;;;;;5044285;28;20037;-77
2022/11/19 13:04:56;;;;;;;2.53;1.60;;;16.90;76.30;;;;;;5041624;28;20421;-78
2022/11/19 13:07:25;;;;;;;;;;;16.90;76.60;;;;;;5037307;28;20362;-77
2022/11/19 13:10:14;;;;;;;2.45;1.63;;;16.90;76.90;;;;;;5047263;28;20373;-77
2022/11/19 13:12:48;;;;;;;6.50;1.83;;;16.80;77.10;;;;;;5020991;28;20040;-78
2022/11/19 13:15:23;;;;;;;1.92;1.25;;;16.80;77.40;;;;;;5034481;28;20029;-77
2022/11/19 13:17:55;;;;;;;2.08;1.70;;;16.80;77.60;;;;;;5033180;28;20052;-77
2022/11/19 13:20:23;;;;;;;1.60;1.40;;;16.80;77.80;;;;;;5051351;28;20025;-77
2022/11/19 13:22:53;;;;;;;3.75;1.58;;;16.80;77.90;;;;;;5042633;28;20030;-77
2022/11/19 13:25:39;;;;;;;;;;;16.70;77.70;;;;;;5043092;28;20065;-77
2022/11/19 13:28:24;;;;;;;2.22;1.60;;;16.60;77.80;;;;;;5049625;28;19904;-77
2022/11/19 13:30:54;;;;;;;2.45;1.75;;;16.60;78.00;;;;;;5050695;28;20408;-77